Time;durP1;ratioP1;P1;durP2;ratioP2;P2;SDS_P1;SDS_P2;PMS_P1;PMS_P2;Temp;Humidity;BMP_temperature;BMP_pressure;BME280_temperature;BME280_humidity;BME280_pressure;Samples;Min_cycle;Max_cycle;Signal;HPM_P1;HPM_P2
2022/04/12 00:01:58;;;;;;;18.20;10.65;;;;;;;6.56;100.00;99304.25;1711178;84;21533;-71
2022/04/12 00:04:28;;;;;;;20.70;10.65;;;;;;;6.62;100.00;99329.53;1711058;83;21075;-71
2022/04/12 00:06:55;;;;;;;20.60;10.43;;;;;;;6.62;100.00;99336.38;1708337;83;21555;-71
2022/04/12 00:09:23;;;;;;;16.97;10.00;;;;;;;6.68;100.00;99334.00;1714960;82;21092;-71
2022/04/12 00:11:52;;;;;;;17.30;9.85;;;;;;;6.58;100.00;99315.23;1689564;85;21081;-71
2022/04/12 00:14:21;;;;;;;20.20;11.55;;;;;;;6.54;100.00;99283.05;1685538;85;21092;-71
2022/04/12 00:19:02;;;;;;;19.70;10.80;;;;;;;6.49;100.00;99259.44;1685393;85;21025;-71
2022/04/12 00:19:20;;;;;;;17.42;10.10;;;;;;;6.48;100.00;99267.17;1739934;82;21119;-71
2022/04/12 00:21:47;;;;;;;15.43;9.50;;;;;;;6.41;100.00;99281.52;1742875;82;21033;-71
2022/04/12 00:24:16;;;;;;;17.98;10.13;;;;;;;6.50;100.00;99265.38;1746690;82;21520;-71
2022/04/12 00:26:44;;;;;;;13.72;9.18;;;;;;;6.45;100.00;99273.69;1708303;84;21561;-71
2022/04/12 00:29:11;;;;;;;14.60;8.83;;;;;;;6.42;100.00;99281.88;1706131;83;21099;-71
2022/04/12 00:31:39;;;;;;;17.57;9.60;;;;;;;6.56;100.00;99271.47;1704448;83;21040;-71
2022/04/12 00:34:07;;;;;;;14.98;9.45;;;;;;;6.61;100.00;99261.41;1711210;83;21032;-72
2022/04/12 00:36:35;;;;;;;14.98;8.95;;;;;;;6.51;100.00;99245.28;1705642;83;21513;-71
2022/04/12 00:39:04;;;;;;;16.52;9.28;;;;;;;6.44;100.00;99260.09;1708322;83;21469;-70
2022/04/12 00:41:35;;;;;;;15.93;9.08;;;;;;;6.40;100.00;99240.69;1708218;82;21064;-71
2022/04/12 00:44:03;;;;;;;18.75;10.80;;;;;;;6.45;100.00;99256.66;1706321;84;20997;-71
2022/04/12 00:46:30;;;;;;;24.45;12.60;;;;;;;6.42;100.00;99283.62;1742227;82;21094;-70
2022/04/12 00:48:58;;;;;;;25.85;13.43;;;;;;;6.40;100.00;99280.31;1704310;84;21497;-70
2022/04/12 00:51:27;;;;;;;24.02;13.80;;;;;;;6.46;100.00;99283.85;1742264;82;21527;-70
2022/04/12 00:53:56;;;;;;;37.80;20.95;;;;;;;6.40;100.00;99277.30;1707869;84;21070;-70
2022/04/12 00:56:25;;;;;;;48.38;24.57;;;;;;;6.46;100.00;99281.75;1709268;83;21048;-70
2022/04/12 00:59:02;;;;;;;;;;;;;;;;;;;;;
2022/04/12 01:01:22;;;;;;;53.60;27.13;;;;;;;6.56;100.00;99287.63;1701382;84;21123;-70
2022/04/12 01:03:49;;;;;;;66.25;32.42;;;;;;;6.53;100.00;99291.63;1707064;83;21037;-71
2022/04/12 01:06:18;;;;;;;29.50;17.42;;;;;;;6.46;100.00;99285.13;1742347;82;21078;-70
2022/04/12 01:08:46;;;;;;;39.05;21.70;;;;;;;6.49;100.00;99273.50;1704151;84;21056;-70
2022/04/12 01:11:15;;;;;;;42.15;22.67;;;;;;;6.51;100.00;99276.81;1706699;83;21113;-70
2022/04/12 01:13:42;;;;;;;32.95;18.40;;;;;;;6.55;100.00;99283.86;1746172;82;21043;-71
2022/04/12 01:16:09;;;;;;;18.92;11.40;;;;;;;6.55;100.00;99287.27;1705292;83;21118;-71
2022/04/12 01:18:53;;;;;;;;;;;;;;;;;;;;;
2022/04/12 01:21:10;;;;;;;17.40;9.63;;;;;;;6.52;100.00;99289.14;1752819;80;21039;-71
2022/04/12 01:24:03;;;;;;;14.78;9.38;;;;;;;6.61;100.00;99297.67;1757090;80;21000;-71
2022/04/12 01:26:31;;;;;;;15.50;9.00;;;;;;;6.53;100.00;99292.91;1757212;80;21039;-71
2022/04/12 01:29:00;;;;;;;16.35;9.48;;;;;;;6.50;100.00;99288.38;1756969;81;21051;-71
2022/04/12 01:31:27;;;;;;;13.90;9.40;;;;;;;6.62;100.00;99287.34;1757267;80;21023;-71
2022/04/12 01:33:55;;;;;;;14.53;8.25;;;;;;;6.48;100.00;99299.13;1757132;81;21047;-71
2022/04/12 01:36:22;;;;;;;12.47;8.43;;;;;;;6.53;100.00;99296.74;1756985;81;21066;-70
2022/04/12 01:38:49;;;;;;;14.90;8.70;;;;;;;6.41;100.00;99308.36;1757226;80;21027;-69
2022/04/12 01:41:16;;;;;;;12.25;8.60;;;;;;;6.58;100.00;99305.02;1757075;80;21035;-71
2022/04/12 01:43:43;;;;;;;12.43;8.10;;;;;;;6.48;100.00;99299.95;1757347;80;21511;-70
2022/04/12 01:46:10;;;;;;;12.50;8.08;;;;;;;6.52;100.00;99301.46;1756899;81;21082;-71
2022/04/12 01:48:38;;;;;;;11.65;8.03;;;;;;;6.58;100.00;99298.62;1756935;81;21464;-70
2022/04/12 01:51:05;;;;;;;12.10;8.15;;;;;;;6.43;100.00;99312.13;1757207;80;21011;-70
2022/04/12 01:53:32;;;;;;;12.23;7.78;;;;;;;6.55;100.00;99299.20;1757087;81;21026;-70
2022/04/12 01:55:59;;;;;;;10.30;7.42;;;;;;;6.53;100.00;99302.28;1757085;80;21051;-69
2022/04/12 01:58:27;;;;;;;10.93;7.47;;;;;;;6.46;100.00;99300.93;1756876;82;21059;-69
2022/04/12 02:00:55;;;;;;;10.38;7.45;;;;;;;6.48;100.00;99300.41;1757151;80;21480;-70
2022/04/12 02:03:22;;;;;;;11.88;7.62;;;;;;;6.53;100.00;99289.50;1757120;80;21133;-70
2022/04/12 02:05:51;;;;;;;11.12;7.47;;;;;;;6.46;100.00;99287.69;1756918;80;21507;-69
2022/04/12 02:08:19;;;;;;;13.28;7.37;;;;;;;6.41;100.00;99281.98;1757029;81;21026;-70
2022/04/12 02:10:50;;;;;;;10.60;7.45;;;;;;;6.44;100.00;99278.44;1756954;81;21031;-70
2022/04/12 02:13:17;;;;;;;11.93;8.38;;;;;;;6.46;100.00;99282.58;1755943;80;21101;-70
2022/04/12 02:15:47;;;;;;;11.38;7.80;;;;;;;6.49;100.00;99279.04;1757204;81;21031;-70
2022/04/12 02:18:14;;;;;;;12.15;8.23;;;;;;;6.38;100.00;99285.94;1751049;81;21043;-68
2022/04/12 02:20:43;;;;;;;13.10;7.97;;;;;;;6.51;100.00;99280.65;1747020;81;21040;-72
2022/04/12 02:23:11;;;;;;;12.40;8.18;;;;;;;6.39;100.00;99280.77;1746881;81;21090;-75
2022/04/12 02:25:39;;;;;;;16.20;7.67;;;;;;;6.39;100.00;99263.33;1746826;81;21052;-75
2022/04/12 02:28:07;;;;;;;14.13;8.03;;;;;;;6.25;100.00;99260.13;1746898;81;21109;-73
2022/04/12 02:30:36;;;;;;;12.10;7.70;;;;;;;6.21;100.00;99256.06;1746854;81;21047;-71
2022/04/12 02:33:03;;;;;;;10.78;7.00;;;;;;;6.10;100.00;99275.70;1746985;81;20999;-71
2022/04/12 02:35:31;;;;;;;14.25;7.55;;;;;;;6.15;100.00;99278.06;1746862;82;21040;-71
2022/04/12 02:37:59;;;;;;;12.98;7.85;;;;;;;6.27;100.00;99280.05;1746949;82;21110;-72
2022/04/12 02:40:27;;;;;;;15.18;7.65;;;;;;;6.14;100.00;99270.86;1746872;81;21504;-74
2022/04/12 02:42:54;;;;;;;26.20;8.35;;;;;;;6.35;100.00;99259.27;1746944;81;21044;-73
2022/04/12 02:45:22;;;;;;;18.42;7.97;;;;;;;6.18;100.00;99234.47;1747095;81;21118;-72
2022/04/12 02:47:49;;;;;;;14.43;7.25;;;;;;;6.11;100.00;99225.00;1746974;81;21003;-72
2022/04/12 02:50:17;;;;;;;11.38;7.05;;;;;;;6.12;100.00;99227.91;1747024;82;21067;-72
2022/04/12 02:52:44;;;;;;;10.98;6.55;;;;;;;6.03;100.00;99232.64;1747048;81;21039;-71
2022/04/12 02:55:13;;;;;;;12.98;7.28;;;;;;;6.13;100.00;99237.25;1747010;82;21077;-71
2022/04/12 02:57:41;;;;;;;9.80;6.10;;;;;;;9.09;100.00;99265.53;1745734;81;21630;-71
2022/04/12 03:00:09;;;;;;;8.33;5.58;;;;;;;7.47;100.00;99264.00;1747032;81;21028;-73
2022/04/12 03:02:37;;;;;;;8.43;4.50;;;;;;;6.99;100.00;99256.60;1747243;81;21030;-74
2022/04/12 03:05:05;;;;;;;8.45;4.60;;;;;;;6.85;100.00;99266.69;1747345;82;21105;-72
2022/04/12 03:07:33;;;;;;;6.85;4.33;;;;;;;9.20;100.00;99311.94;1747219;82;21020;-71
2022/04/12 03:10:00;;;;;;;7.47;4.67;;;;;;;6.91;100.00;99313.25;1747242;81;21051;-71
2022/04/12 03:12:28;;;;;;;6.53;4.22;;;;;;;6.93;100.00;99319.12;1746824;81;21036;-71
2022/04/12 03:14:56;;;;;;;5.87;4.00;;;;;;;6.73;100.00;99308.59;1746913;82;21583;-70
2022/04/12 03:17:24;;;;;;;4.45;3.10;;;;;;;6.75;100.00;99307.22;1745221;82;21004;-70
2022/04/12 03:19:53;;;;;;;3.52;2.92;;;;;;;6.62;100.00;99306.98;1727042;82;21012;-71
2022/04/12 03:22:21;;;;;;;4.53;3.10;;;;;;;6.53;100.00;99304.41;1716828;82;21558;-71
2022/04/12 03:24:48;;;;;;;4.20;3.30;;;;;;;6.70;100.00;99317.67;1716557;82;21052;-71
2022/04/12 03:27:15;;;;;;;4.87;3.27;;;;;;;6.65;100.00;99323.47;1716527;82;21012;-71
2022/04/12 03:29:42;;;;;;;5.08;3.00;;;;;;;6.52;100.00;99325.75;1717028;82;21067;-70
2022/04/12 03:32:10;;;;;;;5.70;3.15;;;;;;;6.71;100.00;99344.06;1716529;84;21083;-70
2022/04/12 03:34:40;;;;;;;4.72;2.62;;;;;;;6.72;100.00;99347.02;1716763;82;21078;-70
2022/04/12 03:37:09;;;;;;;3.90;2.65;;;;;;;6.54;100.00;99340.57;1716641;82;21043;-69
2022/04/12 03:39:36;;;;;;;4.05;2.62;;;;;;;6.58;100.00;99352.77;1716472;84;21072;-69
2022/04/12 03:42:05;;;;;;;4.22;2.87;;;;;;;6.42;100.00;99341.95;1716610;82;21568;-69
2022/04/12 03:44:32;;;;;;;4.35;2.80;;;;;;;6.41;100.00;99332.64;1716416;82;21447;-70
2022/04/12 03:46:59;;;;;;;4.92;2.60;;;;;;;6.53;100.00;99331.69;1716630;82;21074;-70
2022/04/12 03:49:26;;;;;;;6.17;3.27;;;;;;;6.67;100.00;99332.33;1716428;82;21079;-69
2022/04/12 03:51:54;;;;;;;3.33;2.35;;;;;;;6.57;100.00;99325.56;1716645;84;21039;-69
2022/04/12 03:54:34;;;;;;;;;;;;;;;;;;;;;
2022/04/12 03:56:54;;;;;;;2.65;2.20;;;;;;;6.21;100.00;99325.06;1714688;83;21477;-69
2022/04/12 03:59:22;;;;;;;2.27;1.90;;;;;;;6.33;100.00;99327.05;1716369;82;21110;-69
2022/04/12 04:01:50;;;;;;;1.67;1.57;;;;;;;6.24;100.00;99329.19;1716621;84;21079;-69
2022/04/12 04:04:23;;;;;;;3.25;1.70;;;;;;;6.36;100.00;99333.75;1714507;83;21028;-68
2022/04/12 04:06:50;;;;;;;2.83;1.70;;;;;;;6.51;100.00;99343.28;1716584;82;21075;-69
2022/04/12 04:09:21;;;;;;;2.62;2.00;;;;;;;6.59;100.00;99353.98;1716746;83;21087;-68
2022/04/12 04:11:49;;;;;;;2.87;2.20;;;;;;;6.40;100.00;99355.71;1716647;82;21075;-69
2022/04/12 04:14:18;;;;;;;5.30;2.08;;;;;;;6.30;100.00;99357.84;1716646;82;21513;-68
2022/04/12 04:16:47;;;;;;;2.75;2.27;;;;;;;6.30;100.00;99360.86;1716569;82;21055;-69
2022/04/12 04:19:14;;;;;;;3.80;2.20;;;;;;;6.45;100.00;99351.66;1712470;82;21001;-69
2022/04/12 04:21:43;;;;;;;2.62;2.12;;;;;;;6.48;100.00;99356.65;1711329;83;21064;-69
2022/04/12 04:24:10;;;;;;;3.08;2.20;;;;;;;6.47;100.00;99349.86;1711918;83;22594;-69
2022/04/12 04:26:38;;;;;;;3.02;2.15;;;;;;;6.31;100.00;99353.59;1712436;82;21087;-70
2022/04/12 04:29:06;;;;;;;3.22;2.50;;;;;;;6.51;100.00;99349.67;1712915;83;21106;-69
2022/04/12 04:31:34;;;;;;;3.37;2.30;;;;;;;6.53;100.00;99360.66;1711511;84;21102;-69
2022/04/12 04:34:01;;;;;;;3.05;1.98;;;;;;;6.50;100.00;99377.41;1711398;83;21079;-69
2022/04/12 04:36:28;;;;;;;2.17;1.75;;;;;;;6.30;100.00;99374.46;1712293;84;21083;-69
2022/04/12 04:39:01;;;;;;;2.02;1.62;;;;;;;6.18;100.00;99367.34;1708542;84;21093;-70
2022/04/12 04:41:29;;;;;;;3.30;2.10;;;;;;;6.23;100.00;99367.16;1685161;85;20989;-70
2022/04/12 04:43:56;;;;;;;3.05;1.82;;;;;;;6.09;100.00;99372.88;1685689;84;21009;-76
2022/04/12 04:46:24;;;;;;;2.40;1.75;;;;;;;6.33;100.00;99367.13;1685816;84;21037;-73
2022/04/12 04:48:51;;;;;;;2.33;1.70;;;;;;;6.01;100.00;99363.80;1685858;83;21064;-73
2022/04/12 04:51:20;;;;;;;2.37;1.55;;;;;;;5.89;100.00;99345.61;1756283;81;21004;-73
2022/04/12 04:53:56;;;;;;;2.55;1.50;;;;;;;5.92;100.00;99333.55;1750880;80;21436;-72
2022/04/12 04:56:17;;;;;;;3.65;1.67;;;;;;;5.80;100.00;99336.17;1739634;81;21052;-70
2022/04/12 04:58:44;;;;;;;2.75;1.60;;;;;;;5.97;100.00;99340.56;1718509;82;21066;-71
2022/04/12 05:01:11;;;;;;;2.35;1.70;;;;;;;5.96;100.00;99344.45;1718397;82;20987;-70
2022/04/12 05:03:40;;;;;;;2.33;1.72;;;;;;;6.05;100.00;99337.69;1724801;82;21074;-69
2022/04/12 05:06:07;;;;;;;2.33;1.92;;;;;;;6.02;100.00;99331.42;1714661;81;21072;-69
2022/04/12 05:08:34;;;;;;;2.20;1.70;;;;;;;6.02;100.00;99331.42;1747171;81;21066;-69
2022/04/12 05:11:06;;;;;;;3.08;2.20;;;;;;;6.00;100.00;99323.84;1739640;81;21544;-69
2022/04/12 05:13:35;;;;;;;2.45;1.80;;;;;;;5.94;100.00;99325.36;1739426;81;21005;-71
2022/04/12 05:16:05;;;;;;;1.95;1.75;;;;;;;6.08;100.00;99317.09;1730168;81;21071;-69
2022/04/12 05:18:32;;;;;;;2.55;2.05;;;;;;;6.05;100.00;99346.63;1733102;81;21056;-71
2022/04/12 05:21:01;;;;;;;2.72;2.02;;;;;;;6.03;100.00;99345.05;1749427;81;21661;-71
2022/04/12 05:23:29;;;;;;;2.72;2.10;;;;;;;5.97;100.00;99344.40;1747096;80;21028;-72
2022/04/12 05:25:56;;;;;;;2.98;1.82;;;;;;;5.89;100.00;99348.16;1749444;81;21043;-71
2022/04/12 05:28:25;;;;;;;1.85;1.72;;;;;;;6.06;100.00;99350.00;1745375;81;21007;-71
2022/04/12 05:30:52;;;;;;;2.22;1.67;;;;;;;6.01;100.00;99357.42;1746332;81;20996;-71
2022/04/12 05:33:20;;;;;;;2.00;1.75;;;;;;;5.90;100.00;99353.63;1719348;82;21057;-72
2022/04/12 05:35:47;;;;;;;2.80;1.70;;;;;;;5.81;100.00;99361.25;1737039;81;21125;-72
2022/04/12 05:38:16;;;;;;;2.90;2.00;;;;;;;6.27;100.00;99365.67;1717508;82;21047;-71
2022/04/12 05:40:48;;;;;;;3.27;1.82;;;;;;;6.28;100.00;99377.53;1718591;82;21045;-72
2022/04/12 05:43:15;;;;;;;2.55;1.80;;;;;;;6.47;100.00;99378.84;1718558;82;21052;-71
2022/04/12 05:45:43;;;;;;;2.72;1.90;;;;;;;6.45;100.00;99392.14;1718638;82;21025;-68
2022/04/12 05:48:11;;;;;;;3.22;1.70;;;;;;;6.51;100.00;99396.12;1717410;82;21014;-69
2022/04/12 05:50:38;;;;;;;2.60;1.65;;;;;;;6.24;100.00;99390.52;1710053;83;21056;-70
2022/04/12 05:53:06;;;;;;;4.75;2.17;;;;;;;6.03;100.00;99391.02;1714020;82;21003;-70
2022/04/12 05:55:34;;;;;;;4.10;2.12;;;;;;;6.32;100.00;99394.84;1708335;82;21022;-71
2022/04/12 05:58:03;;;;;;;4.00;2.10;;;;;;;6.13;100.00;99404.60;1714399;82;21090;-71
2022/04/12 06:00:33;;;;;;;3.30;1.80;;;;;;;6.13;100.00;99396.94;1714988;82;21091;-69
2022/04/12 06:03:02;;;;;;;3.90;2.10;;;;;;;6.05;100.00;99400.73;1717922;82;21032;-70
2022/04/12 06:05:32;;;;;;;2.87;1.90;;;;;;;6.05;100.00;99402.00;1697237;84;21050;-70
2022/04/12 06:08:00;;;;;;;2.72;1.77;;;;;;;5.83;100.00;99397.31;1707206;84;21025;-70
2022/04/12 06:10:28;;;;;;;3.00;1.92;;;;;;;5.82;100.00;99390.56;1711214;82;21225;-70
2022/04/12 06:12:57;;;;;;;3.08;1.92;;;;;;;6.04;100.00;99398.59;1711120;83;21047;-70
2022/04/12 06:15:25;;;;;;;2.40;1.62;;;;;;;6.24;100.00;99392.63;1744283;80;21093;-67
2022/04/12 06:17:56;;;;;;;2.83;1.82;;;;;;;6.16;100.00;99411.30;1754918;80;21565;-68
2022/04/12 06:20:25;;;;;;;2.12;1.45;;;;;;;5.72;100.00;99423.77;1735007;80;20986;-68
2022/04/12 06:22:53;;;;;;;1.92;1.50;;;;;;;5.73;100.00;99411.83;1746128;80;21011;-69
2022/04/12 06:25:21;;;;;;;2.00;1.50;;;;;;;5.98;100.00;99406.53;1759700;80;21699;-69
2022/04/12 06:27:50;;;;;;;1.95;1.55;;;;;;;6.11;100.00;99411.50;1787224;80;21105;-69
2022/04/12 06:30:23;;;;;;;2.62;1.60;;;;;;;5.91;100.00;99412.78;1787138;80;21101;-68
2022/04/12 06:32:53;;;;;;;3.17;1.85;;;;;;;5.72;100.00;99417.84;1787110;80;21023;-69
2022/04/12 06:35:22;;;;;;;2.60;1.70;;;;;;;6.13;100.00;99407.16;1786816;80;21059;-69
2022/04/12 06:37:53;;;;;;;1.92;1.40;;;;;;;6.21;100.00;99421.70;1760349;80;21093;-69
2022/04/12 06:40:22;;;;;;;1.87;1.30;;;;;;;6.19;100.00;99425.23;1751255;82;21082;-69
2022/04/12 06:42:51;;;;;;;3.20;1.70;;;;;;;6.17;100.00;99420.64;1750012;82;21003;-68
2022/04/12 06:45:21;;;;;;;2.47;1.75;;;;;;;5.95;100.00;99436.87;1749742;82;21180;-69
2022/04/12 06:47:58;;;;;;;2.15;1.80;;;;;;;6.58;100.00;99437.97;1749862;82;21059;-69
2022/04/12 06:50:27;;;;;;;3.75;2.10;;;;;;;5.90;100.00;99437.92;1750016;82;21023;-69
2022/04/12 06:52:57;;;;;;;2.80;1.80;;;;;;;6.11;100.00;99434.50;1749960;82;21078;-69
2022/04/12 06:55:24;;;;;;;2.17;1.80;;;;;;;5.88;100.00;99425.66;1750183;82;21047;-71
2022/04/12 06:57:51;;;;;;;2.35;1.77;;;;;;;5.98;100.00;99421.85;1749765;82;21091;-69
2022/04/12 07:00:20;;;;;;;3.35;2.10;;;;;;;6.06;100.00;99412.59;1750073;81;21519;-69
2022/04/12 07:02:48;;;;;;;3.87;1.92;;;;;;;6.17;100.00;99407.86;1749991;82;21012;-69
2022/04/12 07:05:21;;;;;;;2.85;1.77;;;;;;;6.45;100.00;99447.52;1750049;81;21528;-70
2022/04/12 07:07:48;;;;;;;2.52;1.87;;;;;;;6.01;100.00;99431.95;1776892;80;21050;-70
2022/04/12 07:10:17;;;;;;;2.58;1.90;;;;;;;6.33;100.00;99425.91;1789817;79;21055;-70
2022/04/12 07:12:46;;;;;;;2.17;1.98;;;;;;;6.40;100.00;99437.51;1790149;79;21074;-70
2022/04/12 07:15:14;;;;;;;2.98;1.90;;;;;;;6.07;100.00;99436.80;1780697;80;21012;-69
2022/04/12 07:17:42;;;;;;;2.05;1.72;;;;;;;6.34;100.00;99432.67;1776903;80;21052;-69
2022/04/12 07:20:10;;;;;;;2.67;1.90;;;;;;;6.41;100.00;99432.80;1776939;81;21032;-67
2022/04/12 07:22:40;;;;;;;3.10;1.80;;;;;;;6.21;100.00;99442.60;1776966;81;21508;-67
2022/04/12 07:25:09;;;;;;;3.15;1.98;;;;;;;6.08;100.00;99417.19;1776724;80;21608;-69
2022/04/12 07:27:37;;;;;;;3.35;2.12;;;;;;;5.99;100.00;99440.13;1777003;81;21003;-69
2022/04/12 07:30:07;;;;;;;3.33;2.17;;;;;;;6.01;100.00;99427.67;1776823;81;21036;-69
2022/04/12 07:32:37;;;;;;;3.87;2.22;;;;;;;6.11;100.00;99428.11;1759615;81;21083;-69
2022/04/12 07:35:06;;;;;;;5.80;2.62;;;;;;;6.29;100.00;99435.89;1777208;80;20980;-68
2022/04/12 07:37:33;;;;;;;3.05;2.02;;;;;;;6.36;100.00;99447.48;1776884;80;20965;-70
2022/04/12 07:40:01;;;;;;;4.15;2.77;;;;;;;6.44;100.00;99447.98;1743714;80;20985;-69
2022/04/12 07:42:29;;;;;;;3.67;2.00;;;;;;;6.45;100.00;99457.33;1726469;82;21489;-69
2022/04/12 07:44:57;;;;;;;4.90;2.62;;;;;;;5.99;100.00;99465.22;1726262;82;21059;-69
2022/04/12 07:47:24;;;;;;;4.72;2.67;;;;;;;6.16;100.00;99460.70;1726285;82;21482;-69
2022/04/12 07:49:53;;;;;;;3.65;2.20;;;;;;;6.29;100.00;99478.06;1726417;82;21025;-69
2022/04/12 07:52:20;;;;;;;4.00;2.00;;;;;;;6.40;100.00;99448.55;1726111;82;21103;-68
2022/04/12 07:54:48;;;;;;;3.30;2.05;;;;;;;6.40;100.00;99460.06;1726410;82;21075;-68
2022/04/12 07:57:16;;;;;;;4.05;2.33;;;;;;;6.46;100.00;99465.81;1726184;82;21060;-69
2022/04/12 07:59:43;;;;;;;3.42;2.00;;;;;;;6.18;100.00;99461.89;1726142;82;21091;-69
2022/04/12 08:02:10;;;;;;;3.83;2.35;;;;;;;6.39;100.00;99464.80;1726346;82;21517;-68
2022/04/12 08:04:41;;;;;;;2.75;1.90;;;;;;;6.26;100.00;99494.33;1726185;82;21040;-68
2022/04/12 08:07:08;;;;;;;4.40;2.22;;;;;;;6.32;100.00;99474.90;1747416;81;21011;-68
2022/04/12 08:09:35;;;;;;;5.72;3.35;;;;;;;6.61;100.00;99482.59;1747096;81;21066;-69
2022/04/12 08:12:04;;;;;;;3.10;2.10;;;;;;;6.23;100.00;99480.88;1746927;81;21047;-68
2022/04/12 08:14:32;;;;;;;3.27;1.60;;;;;;;6.36;100.00;99490.48;1740560;82;21528;-68
2022/04/12 08:17:00;;;;;;;2.33;1.80;;;;;;;6.37;100.00;99483.67;1728269;82;21028;-67
2022/04/12 08:19:28;;;;;;;2.70;1.60;;;;;;;6.45;100.00;99511.44;1728439;82;21086;-68
2022/04/12 08:21:55;;;;;;;1.67;1.40;;;;;;;6.73;100.00;99487.62;1728245;82;21075;-67
2022/04/12 08:24:22;;;;;;;1.67;1.50;;;;;;;6.88;100.00;99494.22;1728439;82;21646;-67
2022/04/12 08:26:49;;;;;;;3.15;1.62;;;;;;;6.53;100.00;99513.20;1728617;82;21072;-67
2022/04/12 08:29:17;;;;;;;2.90;1.57;;;;;;;6.65;100.00;99510.57;1728404;82;21051;-67
2022/04/12 08:31:45;;;;;;;2.05;1.50;;;;;;;6.54;100.00;99505.48;1728745;82;21051;-67
2022/04/12 08:34:13;;;;;;;2.40;1.60;;;;;;;6.64;100.00;99534.05;1728127;82;21052;-67
2022/04/12 08:36:41;;;;;;;3.22;1.92;;;;;;;6.70;100.00;99524.00;1727939;82;21119;-67
2022/04/12 08:39:09;;;;;;;2.27;1.70;;;;;;;6.87;100.00;99535.58;1728211;82;21515;-67
2022/04/12 08:41:40;;;;;;;3.33;2.17;;;;;;;6.63;100.00;99547.74;1727520;82;21555;-67
2022/04/12 08:44:08;;;;;;;5.17;2.40;;;;;;;6.57;100.00;99552.66;1728465;82;21021;-66
2022/04/12 08:46:38;;;;;;;4.70;2.47;;;;;;;6.75;100.00;99544.66;1727731;82;21567;-66
2022/04/12 08:49:06;;;;;;;2.92;1.95;;;;;;;6.98;100.00;99564.09;1728003;82;21099;-66
2022/04/12 08:51:36;;;;;;;2.22;1.42;;;;;;;6.91;100.00;99570.36;1728595;82;21036;-66
2022/04/12 08:54:05;;;;;;;3.67;1.92;;;;;;;6.70;100.00;99573.87;1728399;82;21100;-66
2022/04/12 08:56:40;;;;;;;2.72;1.47;;;;;;;6.65;100.00;99572.80;1710373;82;21497;-66
2022/04/12 08:59:09;;;;;;;3.47;1.90;;;;;;;6.64;100.00;99567.74;1728313;82;21100;-66
2022/04/12 09:01:37;;;;;;;2.67;1.65;;;;;;;7.05;100.00;99563.36;1728613;82;21040;-66
2022/04/12 09:04:05;;;;;;;2.83;1.80;;;;;;;6.86;100.00;99568.93;1728333;82;21040;-66
2022/04/12 09:06:32;;;;;;;2.27;1.65;;;;;;;6.89;100.00;99568.78;1728369;82;21087;-66
2022/04/12 09:09:14;;;;;;;3.60;1.92;;;;;;;6.84;100.00;99568.16;1728597;82;21077;-66
2022/04/12 09:11:43;;;;;;;2.60;1.70;;;;;;;7.05;100.00;99573.59;1710713;82;21052;-66
2022/04/12 09:14:14;;;;;;;3.98;1.72;;;;;;;6.97;100.00;99581.61;1729703;80;21079;-66
2022/04/12 09:16:46;;;;;;;2.45;1.62;;;;;;;7.09;100.00;99594.77;1760245;80;21082;-65
2022/04/12 09:19:13;;;;;;;2.83;1.50;;;;;;;7.08;100.00;99590.11;1760782;80;21459;-65
2022/04/12 09:21:46;;;;;;;2.08;1.67;;;;;;;7.19;100.00;99589.62;1760101;80;21534;-64
2022/04/12 09:24:22;;;;;;;1.70;1.40;;;;;;;7.18;100.00;99622.07;1750090;80;21059;-65
2022/04/12 09:26:57;;;;;;;2.33;1.62;;;;;;;7.15;100.00;99600.89;1747194;80;21083;-65
2022/04/12 09:29:31;;;;;;;1.92;1.40;;;;;;;7.32;100.00;99604.82;1747341;81;21088;-64
2022/04/12 09:32:00;;;;;;;2.75;1.77;;;;;;;7.11;100.00;99615.55;1747399;81;21552;-64
2022/04/12 09:34:28;;;;;;;3.92;2.40;;;;;;;7.18;100.00;99618.23;1747371;81;21063;-64
2022/04/12 09:36:55;;;;;;;3.40;1.90;;;;;;;7.37;100.00;99618.23;1747156;81;21118;-65
2022/04/12 09:39:24;;;;;;;1.90;1.60;;;;;;;7.09;100.00;99620.36;1747481;80;21492;-64
2022/04/12 09:41:52;;;;;;;3.40;2.30;;;;;;;7.26;100.00;99625.58;1747117;80;21039;-64
2022/04/12 09:44:21;;;;;;;1.37;1.27;;;;;;;7.16;100.00;99617.47;1747171;81;21019;-64
2022/04/12 09:46:50;;;;;;;2.37;1.62;;;;;;;6.82;100.00;99624.05;1747328;82;21030;-64
2022/04/12 09:49:19;;;;;;;2.70;1.92;;;;;;;7.46;100.00;99631.52;1747333;82;21523;-64
2022/04/12 09:51:49;;;;;;;2.62;1.60;;;;;;;6.90;100.00;99630.58;1747438;82;21082;-64
2022/04/12 09:54:23;;;;;;;2.40;1.67;;;;;;;7.16;100.00;99648.18;1747407;82;21023;-62
2022/04/12 09:56:52;;;;;;;;;;;;;;;7.35;100.00;99660.17;1765260;79;21035;-64
2022/04/12 09:59:21;;;;;;;1.62;1.40;;;;;;;6.92;100.00;99663.32;1787351;79;20130;-64
2022/04/12 10:01:48;;;;;;;1.67;1.37;;;;;;;6.89;100.00;99669.38;1768041;80;20974;-64
2022/04/12 10:04:17;;;;;;;1.67;1.40;;;;;;;6.77;100.00;99669.89;1767155;80;21017;-65
2022/04/12 10:06:46;;;;;;;1.98;1.40;;;;;;;6.84;100.00;99691.78;1768943;80;21118;-64
2022/04/12 10:09:17;;;;;;;1.65;1.40;;;;;;;6.96;100.00;99677.19;1752667;80;20996;-65
2022/04/12 10:11:46;;;;;;;2.60;1.75;;;;;;;7.01;100.00;99685.94;1780513;79;21044;-64
2022/04/12 10:14:16;;;;;;;1.92;1.40;;;;;;;7.04;100.00;99704.19;1795852;79;21500;-65
2022/04/12 10:16:45;;;;;;;1.90;1.50;;;;;;;7.05;100.00;99685.37;1774623;79;21013;-64
2022/04/12 10:19:16;;;;;;;1.72;1.50;;;;;;;7.31;100.00;99693.20;1769077;80;21036;-64
2022/04/12 10:21:45;;;;;;;1.62;1.50;;;;;;;7.45;100.00;99701.56;1779032;79;22124;-64
2022/04/12 10:24:14;;;;;;;2.20;1.57;;;;;;;7.15;100.00;99703.27;1768814;80;21033;-65
2022/04/12 10:26:45;;;;;;;2.87;1.50;;;;;;;7.04;100.00;99716.98;1778056;79;21103;-65
2022/04/12 10:29:15;;;;;;;1.87;1.50;;;;;;;7.30;100.00;99702.63;1771663;80;21032;-64
2022/04/12 10:31:57;;;;;;;2.10;1.50;;;;;;;7.19;100.00;99700.95;1770202;80;21013;-65
2022/04/12 10:34:25;;;;;;;1.85;1.62;;;;;;;7.21;100.00;99710.69;1770548;80;21470;-64
2022/04/12 10:37:06;;;;;;;2.70;1.90;;;;;;;7.22;100.00;99717.48;1779436;79;21480;-64
2022/04/12 10:39:50;;;;;;;2.22;1.90;;;;;;;7.64;100.00;99725.44;1754001;80;21041;-65
2022/04/12 10:42:26;;;;;;;2.22;1.50;;;;;;;7.35;100.00;99725.45;1778480;80;20988;-65
2022/04/12 10:44:57;;;;;;;1.87;1.60;;;;;;;7.10;100.00;99725.69;1801138;79;21063;-65
2022/04/12 10:47:38;;;;;;;2.52;1.90;;;;;;;7.09;100.00;99726.11;1800709;80;21075;-64
2022/04/12 10:50:13;;;;;;;2.20;1.62;;;;;;;7.40;100.00;99732.05;1800793;80;21512;-64
2022/04/12 10:52:48;;;;;;;1.72;1.40;;;;;;;7.13;100.00;99728.09;1763162;80;20988;-64
2022/04/12 10:55:23;;;;;;;2.02;1.47;;;;;;;7.01;100.00;99731.58;1760822;80;21010;-65
2022/04/12 10:57:51;;;;;;;2.12;1.47;;;;;;;6.87;100.00;99735.58;1767697;80;21029;-64
2022/04/12 11:00:21;;;;;;;2.50;1.30;;;;;;;6.94;100.00;99752.36;1783582;80;20992;-65
2022/04/12 11:02:58;;;;;;;1.35;1.20;;;;;;;6.95;100.00;99749.70;1759067;80;20989;-65
2022/04/12 11:05:43;;;;;;;1.30;1.20;;;;;;;7.00;100.00;99739.30;1761727;80;20992;-65
2022/04/12 11:08:23;;;;;;;1.52;1.30;;;;;;;7.09;100.00;99741.92;1763664;80;21029;-65
2022/04/12 11:10:57;;;;;;;1.45;1.32;;;;;;;7.07;100.00;99733.02;1759071;80;21536;-64
2022/04/12 11:13:31;;;;;;;1.50;1.40;;;;;;;7.11;100.00;99725.59;1759035;80;21517;-64
2022/04/12 11:16:08;;;;;;;2.35;1.27;;;;;;;7.08;100.00;99733.87;1736471;81;21600;-64
2022/04/12 11:18:57;;;;;;;1.72;1.25;;;;;;;6.98;100.00;99741.92;1719205;83;21518;-64
2022/04/12 11:21:29;;;;;;;2.20;1.22;;;;;;;7.10;100.00;99743.14;1719090;83;21485;-65
2022/04/12 11:24:04;;;;;;;1.37;1.10;;;;;;;7.01;100.00;99755.88;1715447;83;21021;-66
2022/04/12 11:26:50;;;;;;;2.70;1.40;;;;;;;6.99;100.00;99756.82;1694033;84;21527;-65
2022/04/12 11:29:22;;;;;;;2.12;1.47;;;;;;;7.39;100.00;99758.53;1708038;84;21537;-64
2022/04/12 11:31:54;;;;;;;2.60;1.80;;;;;;;7.30;100.00;99758.95;1708567;84;21006;-64
2022/04/12 11:34:25;;;;;;;2.95;1.80;;;;;;;7.48;100.00;99759.89;1708293;84;21021;-65
2022/04/12 11:37:00;;;;;;;2.37;1.62;;;;;;;7.51;100.00;99748.67;1708388;84;21009;-65
2022/04/12 11:39:31;;;;;;;1.60;1.12;;;;;;;7.56;100.00;99753.12;1708619;83;21017;-65
2022/04/12 11:42:05;;;;;;;1.70;1.60;;;;;;;7.44;100.00;99757.08;1707875;84;21116;-65
2022/04/12 11:44:34;;;;;;;2.95;1.70;;;;;;;7.47;100.00;99760.77;1708271;84;21110;-65